sensor_id;sensor_type;location;lat;lon;timestamp;pressure;altitude;pressure_sealevel;temperature;humidity
60920;BME280;59039;52.108;19.942;2023-01-05T00:00:43;99578.14;;;8.04;85.47
60920;BME280;59039;52.108;19.942;2023-01-05T00:03:09;99572.35;;;8.05;85.35
60920;BME280;59039;52.108;19.942;2023-01-05T00:08:37;99570.86;;;8.11;85.17
60920;BME280;59039;52.108;19.942;2023-01-05T00:11:09;99564.58;;;8.12;85.07
60920;BME280;59039;52.108;19.942;2023-01-05T00:13:35;99565.64;;;8.14;85.07
60920;BME280;59039;52.108;19.942;2023-01-05T00:16:00;99557.59;;;8.17;85.07
60920;BME280;59039;52.108;19.942;2023-01-05T00:18:25;99557.41;;;8.19;85.11
60920;BME280;59039;52.108;19.942;2023-01-05T00:20:51;99552.55;;;8.21;85.06
60920;BME280;59039;52.108;19.942;2023-01-05T00:23:17;99549.44;;;8.23;85.03
60920;BME280;59039;52.108;19.942;2023-01-05T00:25:43;99540.98;;;8.26;84.98
60920;BME280;59039;52.108;19.942;2023-01-05T00:28:08;99538.71;;;8.27;85.01
60920;BME280;59039;52.108;19.942;2023-01-05T00:30:37;99529.16;;;8.28;85.08
60920;BME280;59039;52.108;19.942;2023-01-05T00:33:07;99524.89;;;8.30;85.05
60920;BME280;59039;52.108;19.942;2023-01-05T00:35:32;99526.98;;;8.30;85.14
60920;BME280;59039;52.108;19.942;2023-01-05T00:37:57;99513.08;;;8.32;85.10
60920;BME280;59039;52.108;19.942;2023-01-05T00:40:23;99519.75;;;8.32;85.15
60920;BME280;59039;52.108;19.942;2023-01-05T00:42:48;99517.21;;;8.34;85.13
60920;BME280;59039;52.108;19.942;2023-01-05T00:45:15;99510.61;;;8.35;85.12
60920;BME280;59039;52.108;19.942;2023-01-05T00:47:41;99513.63;;;8.35;85.20
60920;BME280;59039;52.108;19.942;2023-01-05T00:50:08;99508.60;;;8.37;85.14
60920;BME280;59039;52.108;19.942;2023-01-05T00:52:34;99510.91;;;8.37;85.07
60920;BME280;59039;52.108;19.942;2023-01-05T00:55:00;99515.20;;;8.36;85.54
60920;BME280;59039;52.108;19.942;2023-01-05T00:57:25;99513.60;;;8.37;85.27
60920;BME280;59039;52.108;19.942;2023-01-05T00:59:50;99507.65;;;8.37;85.28
60920;BME280;59039;52.108;19.942;2023-01-05T01:02:15;99507.36;;;8.39;85.13
60920;BME280;59039;52.108;19.942;2023-01-05T01:04:41;99506.69;;;8.37;85.25
60920;BME280;59039;52.108;19.942;2023-01-05T01:07:06;99498.77;;;8.38;85.41
60920;BME280;59039;52.108;19.942;2023-01-05T01:09:32;99497.64;;;8.38;85.29
60920;BME280;59039;52.108;19.942;2023-01-05T01:11:58;99496.92;;;8.38;85.54
60920;BME280;59039;52.108;19.942;2023-01-05T01:14:23;99498.13;;;8.37;85.51
60920;BME280;59039;52.108;19.942;2023-01-05T01:16:48;99486.43;;;8.37;85.50
60920;BME280;59039;52.108;19.942;2023-01-05T01:19:19;99491.13;;;8.36;85.50
60920;BME280;59039;52.108;19.942;2023-01-05T01:21:45;99482.86;;;8.34;85.73
60920;BME280;59039;52.108;19.942;2023-01-05T01:24:22;99478.20;;;8.34;85.67
60920;BME280;59039;52.108;19.942;2023-01-05T01:26:47;99475.48;;;8.34;85.59
60920;BME280;59039;52.108;19.942;2023-01-05T01:29:13;99470.95;;;8.34;85.71
60920;BME280;59039;52.108;19.942;2023-01-05T01:31:38;99467.57;;;8.34;85.80
60920;BME280;59039;52.108;19.942;2023-01-05T01:34:04;99455.84;;;8.36;85.71
60920;BME280;59039;52.108;19.942;2023-01-05T01:36:29;99465.23;;;8.36;85.83
60920;BME280;59039;52.108;19.942;2023-01-05T01:38:55;99461.72;;;8.36;85.97
60920;BME280;59039;52.108;19.942;2023-01-05T01:41:20;99459.73;;;8.38;85.80
60920;BME280;59039;52.108;19.942;2023-01-05T01:43:56;99459.90;;;8.41;85.77
60920;BME280;59039;52.108;19.942;2023-01-05T01:46:23;99459.19;;;8.42;85.70
60920;BME280;59039;52.108;19.942;2023-01-05T01:49:08;99455.85;;;8.43;85.71
60920;BME280;59039;52.108;19.942;2023-01-05T01:51:41;99454.59;;;8.43;85.78
60920;BME280;59039;52.108;19.942;2023-01-05T01:54:10;99447.09;;;8.44;85.86
60920;BME280;59039;52.108;19.942;2023-01-05T01:56:41;99442.75;;;8.44;85.76
60920;BME280;59039;52.108;19.942;2023-01-05T01:59:08;99440.44;;;8.43;85.91
60920;BME280;59039;52.108;19.942;2023-01-05T02:01:33;99434.67;;;8.43;85.95
60920;BME280;59039;52.108;19.942;2023-01-05T02:04:00;99430.23;;;8.44;85.85
60920;BME280;59039;52.108;19.942;2023-01-05T02:06:26;99421.27;;;8.45;85.79
60920;BME280;59039;52.108;19.942;2023-01-05T02:08:52;99420.05;;;8.45;85.98
60920;BME280;59039;52.108;19.942;2023-01-05T02:39:00;99388.39;;;8.44;85.52
60920;BME280;59039;52.108;19.942;2023-01-05T02:41:45;99391.58;;;8.43;85.60
60920;BME280;59039;52.108;19.942;2023-01-05T02:44:15;99389.55;;;8.43;85.64
60920;BME280;59039;52.108;19.942;2023-01-05T02:46:40;99384.34;;;8.43;85.58
60920;BME280;59039;52.108;19.942;2023-01-05T02:49:06;99389.27;;;8.44;85.48
60920;BME280;59039;52.108;19.942;2023-01-05T02:51:36;99387.17;;;8.44;85.54
60920;BME280;59039;52.108;19.942;2023-01-05T02:54:18;99385.52;;;8.44;85.52
60920;BME280;59039;52.108;19.942;2023-01-05T02:59:22;99370.45;;;8.43;85.55
60920;BME280;59039;52.108;19.942;2023-01-05T03:01:57;99369.75;;;8.43;85.66
60920;BME280;59039;52.108;19.942;2023-01-05T03:04:33;99366.05;;;8.44;85.85
60920;BME280;59039;52.108;19.942;2023-01-05T03:07:03;99365.69;;;8.45;85.59
60920;BME280;59039;52.108;19.942;2023-01-05T03:09:31;99370.05;;;8.45;85.79
60920;BME280;59039;52.108;19.942;2023-01-05T03:12:06;99365.14;;;8.45;85.87
60920;BME280;59039;52.108;19.942;2023-01-05T03:14:48;99361.90;;;8.47;85.68
60920;BME280;59039;52.108;19.942;2023-01-05T03:17:22;99351.52;;;8.48;85.65
60920;BME280;59039;52.108;19.942;2023-01-05T03:19:49;99355.39;;;8.48;85.64
60920;BME280;59039;52.108;19.942;2023-01-05T03:22:22;99353.62;;;8.50;85.82
60920;BME280;59039;52.108;19.942;2023-01-05T03:24:49;99344.51;;;8.49;85.89
60920;BME280;59039;52.108;19.942;2023-01-05T03:27:15;99341.90;;;8.50;85.87
60920;BME280;59039;52.108;19.942;2023-01-05T03:29:40;99344.60;;;8.50;85.85
60920;BME280;59039;52.108;19.942;2023-01-05T03:32:13;99344.33;;;8.51;86.08
60920;BME280;59039;52.108;19.942;2023-01-05T03:34:47;99342.64;;;8.51;85.87
60920;BME280;59039;52.108;19.942;2023-01-05T03:37:21;99342.04;;;8.52;86.15
60920;BME280;59039;52.108;19.942;2023-01-05T03:39:48;99335.40;;;8.53;86.08
60920;BME280;59039;52.108;19.942;2023-01-05T03:42:14;99338.05;;;8.52;86.22
60920;BME280;59039;52.108;19.942;2023-01-05T03:44:45;99342.27;;;8.53;86.19
60920;BME280;59039;52.108;19.942;2023-01-05T03:47:11;99343.84;;;8.53;86.27
60920;BME280;59039;52.108;19.942;2023-01-05T03:49:36;99347.69;;;8.55;86.19
60920;BME280;59039;52.108;19.942;2023-01-05T03:52:02;99350.37;;;8.55;86.66
60920;BME280;59039;52.108;19.942;2023-01-05T03:54:27;99356.77;;;8.54;86.66
60920;BME280;59039;52.108;19.942;2023-01-05T03:56:53;99352.67;;;8.55;86.25
60920;BME280;59039;52.108;19.942;2023-01-05T03:59:18;99353.85;;;8.54;86.29
60920;BME280;59039;52.108;19.942;2023-01-05T04:01:44;99353.48;;;8.53;86.11
60920;BME280;59039;52.108;19.942;2023-01-05T04:04:09;99359.09;;;8.51;86.22
60920;BME280;59039;52.108;19.942;2023-01-05T04:06:34;99360.28;;;8.50;86.06
60920;BME280;59039;52.108;19.942;2023-01-05T04:09:00;99358.56;;;8.51;85.94
60920;BME280;59039;52.108;19.942;2023-01-05T04:11:25;99362.98;;;8.48;85.82
60920;BME280;59039;52.108;19.942;2023-01-05T04:13:50;99365.05;;;8.48;85.81
60920;BME280;59039;52.108;19.942;2023-01-05T04:16:16;99366.93;;;8.47;85.62
60920;BME280;59039;52.108;19.942;2023-01-05T04:18:41;99371.30;;;8.47;85.58
60920;BME280;59039;52.108;19.942;2023-01-05T04:21:07;99373.64;;;8.47;85.40
60920;BME280;59039;52.108;19.942;2023-01-05T04:23:33;99367.54;;;8.47;85.49
60920;BME280;59039;52.108;19.942;2023-01-05T04:25:58;99377.98;;;8.47;85.37
60920;BME280;59039;52.108;19.942;2023-01-05T04:28:24;99383.61;;;8.46;85.64
60920;BME280;59039;52.108;19.942;2023-01-05T04:30:51;99382.58;;;8.48;85.61
60920;BME280;59039;52.108;19.942;2023-01-05T04:33:18;99389.04;;;8.48;85.65
60920;BME280;59039;52.108;19.942;2023-01-05T04:35:43;99390.39;;;8.49;85.62
60920;BME280;59039;52.108;19.942;2023-01-05T04:38:08;99393.77;;;8.49;85.48
60920;BME280;59039;52.108;19.942;2023-01-05T04:40:34;99395.15;;;8.50;85.40
60920;BME280;59039;52.108;19.942;2023-01-05T04:42:59;99395.31;;;8.50;85.34
60920;BME280;59039;52.108;19.942;2023-01-05T04:45:24;99396.45;;;8.50;85.36
60920;BME280;59039;52.108;19.942;2023-01-05T04:47:53;99386.15;;;8.50;85.14
60920;BME280;59039;52.108;19.942;2023-01-05T04:50:18;99392.64;;;8.51;85.04
60920;BME280;59039;52.108;19.942;2023-01-05T04:52:44;99390.33;;;8.51;85.13
60920;BME280;59039;52.108;19.942;2023-01-05T04:55:09;99387.05;;;8.51;85.01
60920;BME280;59039;52.108;19.942;2023-01-05T04:57:34;99382.63;;;8.52;85.04
60920;BME280;59039;52.108;19.942;2023-01-05T05:00:00;99388.11;;;8.53;84.96
60920;BME280;59039;52.108;19.942;2023-01-05T05:02:26;99386.89;;;8.54;84.91
60920;BME280;59039;52.108;19.942;2023-01-05T05:04:51;99384.08;;;8.55;84.79
60920;BME280;59039;52.108;19.942;2023-01-05T05:07:17;99383.73;;;8.55;84.82
60920;BME280;59039;52.108;19.942;2023-01-05T05:09:42;99386.52;;;8.54;84.87
60920;BME280;59039;52.108;19.942;2023-01-05T05:12:07;99389.20;;;8.55;84.78
60920;BME280;59039;52.108;19.942;2023-01-05T05:14:33;99386.25;;;8.55;84.75
60920;BME280;59039;52.108;19.942;2023-01-05T05:16:58;99389.37;;;8.56;84.63
60920;BME280;59039;52.108;19.942;2023-01-05T05:19:23;99386.08;;;8.55;84.66
60920;BME280;59039;52.108;19.942;2023-01-05T05:21:49;99383.45;;;8.55;84.59
60920;BME280;59039;52.108;19.942;2023-01-05T05:24:14;99387.16;;;8.53;84.39
60920;BME280;59039;52.108;19.942;2023-01-05T05:26:39;99383.41;;;8.53;84.21
60920;BME280;59039;52.108;19.942;2023-01-05T05:29:04;99389.28;;;8.51;84.44
60920;BME280;59039;52.108;19.942;2023-01-05T05:31:30;99391.15;;;8.50;84.26
60920;BME280;59039;52.108;19.942;2023-01-05T05:33:55;99391.65;;;8.49;84.44
60920;BME280;59039;52.108;19.942;2023-01-05T05:36:20;99395.00;;;8.46;84.47
60920;BME280;59039;52.108;19.942;2023-01-05T05:38:46;99386.54;;;8.44;84.35
60920;BME280;59039;52.108;19.942;2023-01-05T05:41:11;99388.56;;;8.42;84.55
60920;BME280;59039;52.108;19.942;2023-01-05T05:43:36;99386.80;;;8.42;84.25
60920;BME280;59039;52.108;19.942;2023-01-05T05:46:02;99386.52;;;8.41;84.29
60920;BME280;59039;52.108;19.942;2023-01-05T05:48:27;99387.11;;;8.41;84.25
60920;BME280;59039;52.108;19.942;2023-01-05T05:50:53;99385.56;;;8.40;84.22
60920;BME280;59039;52.108;19.942;2023-01-05T05:53:18;99387.23;;;8.39;84.22
60920;BME280;59039;52.108;19.942;2023-01-05T05:55:48;99383.77;;;8.38;84.43
60920;BME280;59039;52.108;19.942;2023-01-05T05:58:14;99383.79;;;8.38;84.39
60920;BME280;59039;52.108;19.942;2023-01-05T06:00:39;99383.31;;;8.39;84.30
60920;BME280;59039;52.108;19.942;2023-01-05T06:03:05;99390.60;;;8.40;84.56
60920;BME280;59039;52.108;19.942;2023-01-05T06:05:30;99388.49;;;8.41;84.60
60920;BME280;59039;52.108;19.942;2023-01-05T06:07:56;99389.08;;;8.43;84.48
60920;BME280;59039;52.108;19.942;2023-01-05T06:10:21;99390.15;;;8.44;84.61
60920;BME280;59039;52.108;19.942;2023-01-05T06:12:46;99389.35;;;8.45;84.62
60920;BME280;59039;52.108;19.942;2023-01-05T06:15:11;99388.40;;;8.46;84.71
60920;BME280;59039;52.108;19.942;2023-01-05T06:17:37;99392.13;;;8.48;84.82
60920;BME280;59039;52.108;19.942;2023-01-05T06:20:03;99392.03;;;8.49;84.77
60920;BME280;59039;52.108;19.942;2023-01-05T06:22:28;99393.08;;;8.49;84.87
60920;BME280;59039;52.108;19.942;2023-01-05T06:24:53;99392.51;;;8.49;84.93
60920;BME280;59039;52.108;19.942;2023-01-05T06:27:19;99394.09;;;8.50;84.92
60920;BME280;59039;52.108;19.942;2023-01-05T06:29:44;99395.21;;;8.49;84.96
60920;BME280;59039;52.108;19.942;2023-01-05T06:32:09;99392.66;;;8.48;85.26
60920;BME280;59039;52.108;19.942;2023-01-05T06:34:34;99395.16;;;8.47;85.21
60920;BME280;59039;52.108;19.942;2023-01-05T06:37:00;99400.15;;;8.44;85.60
60920;BME280;59039;52.108;19.942;2023-01-05T06:39:25;99396.83;;;8.43;85.46
60920;BME280;59039;52.108;19.942;2023-01-05T06:41:50;99393.44;;;8.42;85.50
60920;BME280;59039;52.108;19.942;2023-01-05T06:44:15;99399.09;;;8.44;85.29
60920;BME280;59039;52.108;19.942;2023-01-05T06:46:41;99397.23;;;8.42;85.53
60920;BME280;59039;52.108;19.942;2023-01-05T06:49:06;99396.85;;;8.41;85.51
60920;BME280;59039;52.108;19.942;2023-01-05T06:51:31;99397.16;;;8.40;85.73
60920;BME280;59039;52.108;19.942;2023-01-05T06:53:56;99397.84;;;8.38;85.66
60920;BME280;59039;52.108;19.942;2023-01-05T06:56:22;99399.52;;;8.37;85.75
60920;BME280;59039;52.108;19.942;2023-01-05T06:58:47;99401.38;;;8.35;85.84
60920;BME280;59039;52.108;19.942;2023-01-05T07:01:12;99404.31;;;8.34;85.75
60920;BME280;59039;52.108;19.942;2023-01-05T07:03:37;99404.40;;;8.34;85.84
60920;BME280;59039;52.108;19.942;2023-01-05T07:06:03;99408.73;;;8.34;85.99
60920;BME280;59039;52.108;19.942;2023-01-05T07:08:28;99417.42;;;8.34;86.03
60920;BME280;59039;52.108;19.942;2023-01-05T07:10:53;99416.45;;;8.34;85.96
60920;BME280;59039;52.108;19.942;2023-01-05T07:13:19;99417.27;;;8.33;86.07
60920;BME280;59039;52.108;19.942;2023-01-05T07:15:44;99421.69;;;8.33;86.25
60920;BME280;59039;52.108;19.942;2023-01-05T07:18:09;99423.91;;;8.34;86.17
60920;BME280;59039;52.108;19.942;2023-01-05T07:20:35;99423.52;;;8.34;86.21
60920;BME280;59039;52.108;19.942;2023-01-05T07:23:00;99421.77;;;8.33;86.27
60920;BME280;59039;52.108;19.942;2023-01-05T07:25:25;99423.67;;;8.34;86.29
60920;BME280;59039;52.108;19.942;2023-01-05T07:27:51;99420.83;;;8.35;86.21
60920;BME280;59039;52.108;19.942;2023-01-05T07:30:17;99417.11;;;8.36;86.17
60920;BME280;59039;52.108;19.942;2023-01-05T07:32:42;99412.72;;;8.37;86.19
60920;BME280;59039;52.108;19.942;2023-01-05T07:35:08;99416.41;;;8.38;86.03
60920;BME280;59039;52.108;19.942;2023-01-05T07:37:33;99424.67;;;8.39;86.08
60920;BME280;59039;52.108;19.942;2023-01-05T07:39:58;99417.44;;;8.39;86.07
60920;BME280;59039;52.108;19.942;2023-01-05T07:42:24;99419.83;;;8.41;85.97
60920;BME280;59039;52.108;19.942;2023-01-05T07:44:49;99427.17;;;8.41;85.94
60920;BME280;59039;52.108;19.942;2023-01-05T07:47:14;99429.21;;;8.42;85.98
60920;BME280;59039;52.108;19.942;2023-01-05T07:49:39;99423.70;;;8.43;85.91
60920;BME280;59039;52.108;19.942;2023-01-05T07:52:05;99426.92;;;8.45;85.82
60920;BME280;59039;52.108;19.942;2023-01-05T07:54:30;99426.02;;;8.47;85.81
60920;BME280;59039;52.108;19.942;2023-01-05T07:56:55;99423.34;;;8.48;85.69
60920;BME280;59039;52.108;19.942;2023-01-05T07:59:20;99422.98;;;8.50;85.59
60920;BME280;59039;52.108;19.942;2023-01-05T08:01:46;99424.86;;;8.50;85.64
60920;BME280;59039;52.108;19.942;2023-01-05T08:04:12;99425.84;;;8.51;85.40
60920;BME280;59039;52.108;19.942;2023-01-05T08:06:37;99430.39;;;8.54;85.37
60920;BME280;59039;52.108;19.942;2023-01-05T08:09:03;99429.31;;;8.54;85.21
60920;BME280;59039;52.108;19.942;2023-01-05T08:11:28;99428.69;;;8.55;85.18
60920;BME280;59039;52.108;19.942;2023-01-05T08:13:53;99435.58;;;8.57;85.14
60920;BME280;59039;52.108;19.942;2023-01-05T08:16:19;99439.50;;;8.59;84.77
60920;BME280;59039;52.108;19.942;2023-01-05T08:18:44;99437.98;;;8.58;84.42
60920;BME280;59039;52.108;19.942;2023-01-05T08:21:10;99452.45;;;8.60;84.02
60920;BME280;59039;52.108;19.942;2023-01-05T08:23:36;99457.56;;;8.62;84.02
60920;BME280;59039;52.108;19.942;2023-01-05T08:26:07;99458.86;;;8.64;83.98
60920;BME280;59039;52.108;19.942;2023-01-05T08:28:34;99461.83;;;8.65;83.34
60920;BME280;59039;52.108;19.942;2023-01-05T08:31:02;99464.52;;;8.67;83.29
60920;BME280;59039;52.108;19.942;2023-01-05T08:33:28;99464.05;;;8.67;82.89
60920;BME280;59039;52.108;19.942;2023-01-05T08:35:53;99468.34;;;8.67;82.80
60920;BME280;59039;52.108;19.942;2023-01-05T08:38:20;99468.88;;;8.68;81.96
60920;BME280;59039;52.108;19.942;2023-01-05T08:40:45;99469.90;;;8.68;82.08
60920;BME280;59039;52.108;19.942;2023-01-05T08:43:11;99472.34;;;8.69;81.67
60920;BME280;59039;52.108;19.942;2023-01-05T08:45:36;99470.86;;;8.69;81.29
60920;BME280;59039;52.108;19.942;2023-01-05T08:48:01;99475.62;;;8.69;81.63
60920;BME280;59039;52.108;19.942;2023-01-05T08:50:26;99479.83;;;8.70;81.78
60920;BME280;59039;52.108;19.942;2023-01-05T08:52:52;99468.80;;;8.72;82.00
60920;BME280;59039;52.108;19.942;2023-01-05T08:55:17;99477.46;;;8.73;81.85
60920;BME280;59039;52.108;19.942;2023-01-05T08:57:42;99476.39;;;8.75;81.78
60920;BME280;59039;52.108;19.942;2023-01-05T09:00:08;99481.87;;;8.76;82.05
60920;BME280;59039;52.108;19.942;2023-01-05T09:02:34;99485.57;;;8.77;81.90
60920;BME280;59039;52.108;19.942;2023-01-05T09:04:59;99494.84;;;8.78;81.65
60920;BME280;59039;52.108;19.942;2023-01-05T09:07:25;99499.39;;;8.80;81.75
60920;BME280;59039;52.108;19.942;2023-01-05T09:09:50;99500.70;;;8.83;81.70
60920;BME280;59039;52.108;19.942;2023-01-05T09:12:15;99506.45;;;8.85;81.39
60920;BME280;59039;52.108;19.942;2023-01-05T09:14:41;99508.96;;;8.86;81.12
60920;BME280;59039;52.108;19.942;2023-01-05T09:17:06;99505.86;;;8.88;81.18
60920;BME280;59039;52.108;19.942;2023-01-05T09:19:31;99509.50;;;8.89;81.03
60920;BME280;59039;52.108;19.942;2023-01-05T09:21:56;99513.80;;;8.91;80.89
60920;BME280;59039;52.108;19.942;2023-01-05T09:24:22;99516.11;;;8.93;80.66
60920;BME280;59039;52.108;19.942;2023-01-05T09:26:47;99511.77;;;8.95;80.32
60920;BME280;59039;52.108;19.942;2023-01-05T09:29:13;99511.84;;;8.96;79.98
60920;BME280;59039;52.108;19.942;2023-01-05T09:31:41;99516.36;;;8.98;80.21
60920;BME280;59039;52.108;19.942;2023-01-05T09:34:07;99525.02;;;8.98;79.58
60920;BME280;59039;52.108;19.942;2023-01-05T09:36:32;99525.38;;;8.98;79.71
60920;BME280;59039;52.108;19.942;2023-01-05T09:38:58;99521.75;;;8.96;78.67
60920;BME280;59039;52.108;19.942;2023-01-05T09:41:30;99519.98;;;8.96;79.68
60920;BME280;59039;52.108;19.942;2023-01-05T09:44:01;99520.86;;;8.96;78.87
60920;BME280;59039;52.108;19.942;2023-01-05T09:46:32;99520.63;;;8.97;79.20
60920;BME280;59039;52.108;19.942;2023-01-05T09:49:00;99521.04;;;8.96;78.41
60920;BME280;59039;52.108;19.942;2023-01-05T09:51:27;99524.39;;;8.97;78.33
60920;BME280;59039;52.108;19.942;2023-01-05T09:53:53;99524.55;;;8.97;78.41
60920;BME280;59039;52.108;19.942;2023-01-05T09:56:38;99520.32;;;8.98;78.35
60920;BME280;59039;52.108;19.942;2023-01-05T09:59:13;99520.39;;;8.97;77.88
60920;BME280;59039;52.108;19.942;2023-01-05T10:01:40;99522.70;;;8.98;78.21
60920;BME280;59039;52.108;19.942;2023-01-05T10:04:17;99517.16;;;8.99;78.39
60920;BME280;59039;52.108;19.942;2023-01-05T10:06:46;99514.43;;;9.01;79.05
60920;BME280;59039;52.108;19.942;2023-01-05T10:09:17;99514.10;;;9.01;78.83
60920;BME280;59039;52.108;19.942;2023-01-05T10:14:18;99512.94;;;8.99;77.73
60920;BME280;59039;52.108;19.942;2023-01-05T10:16:46;99511.14;;;8.98;76.65
60920;BME280;59039;52.108;19.942;2023-01-05T10:19:18;99512.33;;;8.97;76.32
60920;BME280;59039;52.108;19.942;2023-01-05T10:22:03;99520.48;;;8.95;76.75
60920;BME280;59039;52.108;19.942;2023-01-05T10:27:18;99512.21;;;8.93;75.32
60920;BME280;59039;52.108;19.942;2023-01-05T10:29:46;99518.55;;;8.91;74.69
60920;BME280;59039;52.108;19.942;2023-01-05T10:32:32;99524.98;;;8.90;74.73
60920;BME280;59039;52.108;19.942;2023-01-05T10:35:22;99522.98;;;8.90;75.47
60920;BME280;59039;52.108;19.942;2023-01-05T10:46:03;99521.77;;;8.91;74.67
60920;BME280;59039;52.108;19.942;2023-01-05T10:48:33;99524.32;;;8.93;74.74
60920;BME280;59039;52.108;19.942;2023-01-05T10:51:00;99519.52;;;8.96;74.65
60920;BME280;59039;52.108;19.942;2023-01-05T10:53:27;99508.16;;;8.97;73.99
60920;BME280;59039;52.108;19.942;2023-01-05T10:56:13;99516.60;;;8.99;73.69
60920;BME280;59039;52.108;19.942;2023-01-05T10:58:43;99514.98;;;9.03;74.17
60920;BME280;59039;52.108;19.942;2023-01-05T11:01:27;99514.94;;;9.04;73.97
60920;BME280;59039;52.108;19.942;2023-01-05T11:04:01;99520.10;;;9.05;73.36
60920;BME280;59039;52.108;19.942;2023-01-05T11:06:31;99511.93;;;9.06;73.54
60920;BME280;59039;52.108;19.942;2023-01-05T11:09:18;99516.98;;;9.06;72.64
60920;BME280;59039;52.108;19.942;2023-01-05T11:11:58;99516.46;;;9.05;71.69
60920;BME280;59039;52.108;19.942;2023-01-05T11:14:26;99519.56;;;9.07;72.65
60920;BME280;59039;52.108;19.942;2023-01-05T11:16:54;99521.42;;;9.08;72.32
60920;BME280;59039;52.108;19.942;2023-01-05T11:19:29;99525.55;;;9.10;72.55
60920;BME280;59039;52.108;19.942;2023-01-05T11:21:55;99524.61;;;9.12;72.48
60920;BME280;59039;52.108;19.942;2023-01-05T11:26:51;99532.29;;;9.18;72.22
60920;BME280;59039;52.108;19.942;2023-01-05T11:29:17;99526.14;;;9.19;71.04
60920;BME280;59039;52.108;19.942;2023-01-05T11:34:14;99537.53;;;9.21;70.04
60920;BME280;59039;52.108;19.942;2023-01-05T11:36:41;99539.33;;;9.23;70.66
60920;BME280;59039;52.108;19.942;2023-01-05T11:39:17;99530.83;;;9.24;71.25
60920;BME280;59039;52.108;19.942;2023-01-05T11:41:44;99538.23;;;9.24;68.93
60920;BME280;59039;52.108;19.942;2023-01-05T11:44:19;99540.05;;;9.25;70.00
60920;BME280;59039;52.108;19.942;2023-01-05T11:46:46;99537.17;;;9.26;69.43
60920;BME280;59039;52.108;19.942;2023-01-05T11:49:16;99539.50;;;9.26;69.49
60920;BME280;59039;52.108;19.942;2023-01-05T11:51:42;99534.86;;;9.27;69.53
60920;BME280;59039;52.108;19.942;2023-01-05T11:54:30;99535.98;;;9.29;69.87
60920;BME280;59039;52.108;19.942;2023-01-05T11:57:26;99535.41;;;9.27;68.94
60920;BME280;59039;52.108;19.942;2023-01-05T11:59:51;99530.13;;;9.28;69.74
60920;BME280;59039;52.108;19.942;2023-01-05T12:05:17;99523.60;;;9.26;68.55
60920;BME280;59039;52.108;19.942;2023-01-05T12:07:54;99519.00;;;9.24;68.14
60920;BME280;59039;52.108;19.942;2023-01-05T12:19:02;99525.21;;;9.11;68.13
60920;BME280;59039;52.108;19.942;2023-01-05T12:21:37;99520.04;;;9.08;67.70
60920;BME280;59039;52.108;19.942;2023-01-05T12:27:15;99522.80;;;8.98;66.77
60920;BME280;59039;52.108;19.942;2023-01-05T12:38:05;99525.39;;;8.88;68.57
60920;BME280;59039;52.108;19.942;2023-01-05T12:43:12;99527.04;;;8.85;68.31
60920;BME280;59039;52.108;19.942;2023-01-05T12:48:42;99522.45;;;8.82;68.73
60920;BME280;59039;52.108;19.942;2023-01-05T12:54:02;99522.09;;;8.82;69.42
60920;BME280;59039;52.108;19.942;2023-01-05T12:59:05;99521.60;;;8.78;69.20
60920;BME280;59039;52.108;19.942;2023-01-05T13:01:37;99524.23;;;8.77;69.34
60920;BME280;59039;52.108;19.942;2023-01-05T13:04:09;99528.90;;;8.74;68.45
60920;BME280;59039;52.108;19.942;2023-01-05T13:06:39;99534.40;;;8.68;68.94
60920;BME280;59039;52.108;19.942;2023-01-05T13:09:19;99537.23;;;8.65;69.38
60920;BME280;59039;52.108;19.942;2023-01-05T13:11:53;99539.65;;;8.61;69.74
60920;BME280;59039;52.108;19.942;2023-01-05T13:14:28;99543.71;;;8.57;70.08
60920;BME280;59039;52.108;19.942;2023-01-05T13:17:21;99544.61;;;8.53;70.24
60920;BME280;59039;52.108;19.942;2023-01-05T13:19:53;99546.81;;;8.46;70.37
60920;BME280;59039;52.108;19.942;2023-01-05T13:22:25;99548.05;;;8.43;70.49
60920;BME280;59039;52.108;19.942;2023-01-05T13:27:38;99551.57;;;8.33;70.96
60920;BME280;59039;52.108;19.942;2023-01-05T13:30:05;99552.08;;;8.30;71.25
60920;BME280;59039;52.108;19.942;2023-01-05T13:32:35;99549.46;;;8.28;71.51
60920;BME280;59039;52.108;19.942;2023-01-05T13:41:00;99553.11;;;8.19;72.25
60920;BME280;59039;52.108;19.942;2023-01-05T13:43:51;99555.35;;;8.14;72.39
60920;BME280;59039;52.108;19.942;2023-01-05T13:54:58;99564.73;;;7.99;73.58
60920;BME280;59039;52.108;19.942;2023-01-05T13:57:28;99561.81;;;7.98;73.79
60920;BME280;59039;52.108;19.942;2023-01-05T13:59:57;99561.16;;;7.97;73.68
60920;BME280;59039;52.108;19.942;2023-01-05T14:02:36;99567.69;;;7.95;73.79
60920;BME280;59039;52.108;19.942;2023-01-05T14:05:12;99565.79;;;7.92;73.84
60920;BME280;59039;52.108;19.942;2023-01-05T14:07:39;99573.16;;;7.89;73.94
60920;BME280;59039;52.108;19.942;2023-01-05T14:10:25;99572.70;;;7.88;73.97
60920;BME280;59039;52.108;19.942;2023-01-05T14:12:52;99578.02;;;7.87;74.03
60920;BME280;59039;52.108;19.942;2023-01-05T14:15:40;99585.17;;;7.86;73.95
60920;BME280;59039;52.108;19.942;2023-01-05T14:18:10;99583.77;;;7.84;74.22
60920;BME280;59039;52.108;19.942;2023-01-05T14:20:46;99585.01;;;7.83;74.18
60920;BME280;59039;52.108;19.942;2023-01-05T14:26:05;99591.41;;;7.80;74.38
60920;BME280;59039;52.108;19.942;2023-01-05T14:33:45;99592.36;;;7.80;74.40
60920;BME280;59039;52.108;19.942;2023-01-05T14:36:40;99594.33;;;7.80;74.54
60920;BME280;59039;52.108;19.942;2023-01-05T14:46:59;99601.27;;;7.75;74.72
60920;BME280;59039;52.108;19.942;2023-01-05T14:49:39;99600.80;;;7.74;74.86
60920;BME280;59039;52.108;19.942;2023-01-05T14:52:17;99601.88;;;7.74;74.89
60920;BME280;59039;52.108;19.942;2023-01-05T14:59:45;99603.02;;;7.72;74.78
60920;BME280;59039;52.108;19.942;2023-01-05T15:02:19;99606.77;;;7.72;74.80
60920;BME280;59039;52.108;19.942;2023-01-05T15:04:47;99603.40;;;7.73;74.87
60920;BME280;59039;52.108;19.942;2023-01-05T15:07:41;99604.91;;;7.73;74.84
60920;BME280;59039;52.108;19.942;2023-01-05T15:18:24;99610.99;;;7.72;74.89